createdAt,value
2022-12-17T00:02:44.671Z,33.65
2022-12-17T00:05:30.724Z,32.97
2022-12-17T00:08:17.016Z,32.92
2022-12-17T00:11:02.743Z,14.13
2022-12-17T00:13:49.645Z,23.77
2022-12-17T00:16:35.419Z,31.23
2022-12-17T00:19:21.120Z,32.33
2022-12-17T00:22:06.384Z,30.92
2022-12-17T00:24:54.002Z,15.57
2022-12-17T00:27:38.324Z,25.45
2022-12-17T00:30:26.572Z,28.30
2022-12-17T00:33:13.044Z,31.08
2022-12-17T00:38:43.444Z,29.17
2022-12-17T00:41:29.056Z,27.73
2022-12-17T00:44:14.703Z,30.53
2022-12-17T00:47:02.277Z,26.88
2022-12-17T00:49:47.686Z,24.75
2022-12-17T00:52:33.007Z,23.88
2022-12-17T00:55:18.542Z,27.48
2022-12-17T00:58:06.165Z,29.48
2022-12-17T01:00:51.504Z,20.60
2022-12-17T01:03:38.736Z,22.13
2022-12-17T01:06:26.080Z,26.33
2022-12-17T01:09:11.793Z,27.50
2022-12-17T01:11:57.731Z,29.83
2022-12-17T01:14:44.065Z,24.20
2022-12-17T01:17:30.343Z,19.30
2022-12-17T01:20:16.895Z,27.52
2022-12-17T01:23:04.472Z,27.80
2022-12-17T01:25:50.019Z,31.33
2022-12-17T01:28:40.439Z,32.42
2022-12-17T01:31:29.150Z,32.03
2022-12-17T01:34:18.411Z,32.08
2022-12-17T01:37:07.704Z,32.67
2022-12-17T01:39:53.310Z,31.73
2022-12-17T01:42:39.246Z,31.13
2022-12-17T01:45:28.876Z,30.17
2022-12-17T01:48:17.303Z,30.13
2022-12-17T01:51:05.067Z,34.03
2022-12-17T01:53:56.473Z,32.97
2022-12-17T01:56:45.007Z,28.42
2022-12-17T01:59:32.165Z,29.70
2022-12-17T02:05:02.982Z,13.13
2022-12-17T02:08:05.168Z,24.45
2022-12-17T02:10:58.767Z,22.45
2022-12-17T02:13:51.617Z,29.10
2022-12-17T02:16:41.092Z,17.38
2022-12-17T02:19:40.709Z,30.77
2022-12-17T02:22:33.180Z,31.38
2022-12-17T02:25:26.151Z,29.33
2022-12-17T02:28:10.221Z,22.05
2022-12-17T02:30:56.961Z,18.38
2022-12-17T02:33:42.957Z,28.85
2022-12-17T02:36:28.999Z,27.88
2022-12-17T02:39:14.338Z,28.20
2022-12-17T02:42:04.762Z,27.35
2022-12-17T02:44:53.761Z,31.27
2022-12-17T02:47:40.847Z,29.65
2022-12-17T02:50:27.590Z,30.83
2022-12-17T02:53:14.508Z,29.02
2022-12-17T02:56:01.399Z,24.67
2022-12-17T02:58:47.213Z,29.08
2022-12-17T03:01:34.919Z,29.10
2022-12-17T03:04:22.880Z,28.48
2022-12-17T03:07:08.840Z,28.48
2022-12-17T03:09:54.296Z,25.15
2022-12-17T03:12:41.296Z,18.40
2022-12-17T03:15:27.549Z,17.98
2022-12-17T03:18:14.057Z,16.98
2022-12-17T03:23:44.696Z,22.63
2022-12-17T03:26:29.974Z,25.60
2022-12-17T03:29:15.386Z,20.10
2022-12-17T03:32:00.903Z,18.48
2022-12-17T03:34:47.679Z,25.05
2022-12-17T03:37:33.161Z,20.83
2022-12-17T03:40:18.640Z,28.17
2022-12-17T03:43:04.093Z,15.53
2022-12-17T03:45:49.460Z,14.43
2022-12-17T03:48:35.347Z,17.35
2022-12-17T03:51:22.220Z,24.88
2022-12-17T03:54:07.906Z,23.35
2022-12-17T03:56:53.450Z,25.48
2022-12-17T03:59:39.062Z,26.33
2022-12-17T04:02:30.381Z,15.93
2022-12-17T04:05:20.153Z,16.58
2022-12-17T04:08:07.643Z,21.98
2022-12-17T04:10:53.383Z,26.23
2022-12-17T04:16:27.028Z,16.35
2022-12-17T04:19:12.931Z,17.20
2022-12-17T04:21:58.722Z,17.23
2022-12-17T04:24:45.460Z,19.75
2022-12-17T04:27:30.672Z,21.38
2022-12-17T04:30:16.046Z,12.90
2022-12-17T04:33:03.760Z,14.25
2022-12-17T04:35:49.364Z,18.33
2022-12-17T04:38:34.621Z,13.30
2022-12-17T04:41:21.767Z,15.38
2022-12-17T04:44:13.054Z,14.18
2022-12-17T04:47:07.091Z,11.98
2022-12-17T04:49:52.692Z,18.92
2022-12-17T04:52:43.276Z,12.35
2022-12-17T04:55:28.669Z,14.82
2022-12-17T04:58:20.627Z,16.00
2022-12-17T05:01:05.864Z,13.15
2022-12-17T05:03:51.146Z,19.33
2022-12-17T05:06:36.707Z,11.23
2022-12-17T05:09:21.960Z,15.73
2022-12-17T05:12:07.209Z,16.15
2022-12-17T05:14:53.979Z,18.20
2022-12-17T05:17:39.326Z,14.02
2022-12-17T05:20:24.391Z,25.45
2022-12-17T05:23:09.930Z,18.55
2022-12-17T05:25:55.335Z,16.13
2022-12-17T05:28:41.016Z,19.52
2022-12-17T05:31:28.550Z,17.35
2022-12-17T05:34:14.087Z,14.20
2022-12-17T05:36:59.404Z,20.35
2022-12-17T05:39:44.608Z,17.33
2022-12-17T05:42:30.230Z,12.95
2022-12-17T05:45:15.784Z,14.82
2022-12-17T05:48:02.923Z,17.57
2022-12-17T05:50:48.558Z,14.10
2022-12-17T05:53:34.310Z,15.87
2022-12-17T05:56:19.862Z,19.55
2022-12-17T05:59:05.225Z,16.27
2022-12-17T06:01:51.540Z,14.68
2022-12-17T06:04:43.832Z,19.27
2022-12-17T06:07:29.446Z,13.13
2022-12-17T06:10:14.967Z,18.27
2022-12-17T06:13:00.277Z,20.63
2022-12-17T06:15:45.617Z,19.05
2022-12-17T06:18:31.220Z,14.77
2022-12-17T06:21:19.803Z,7.23
2022-12-17T06:24:04.260Z,14.18
2022-12-17T06:26:49.874Z,17.33
2022-12-17T06:29:35.322Z,13.63
2022-12-17T06:32:21.067Z,17.88
2022-12-17T06:35:06.644Z,17.75
2022-12-17T06:37:53.491Z,17.67
2022-12-17T06:40:39.048Z,21.83
2022-12-17T06:43:24.595Z,15.53
2022-12-17T06:46:10.585Z,19.67
2022-12-17T06:48:55.917Z,17.42
2022-12-17T06:51:41.348Z,16.60
2022-12-17T06:54:28.055Z,20.92
2022-12-17T06:57:13.457Z,19.90
2022-12-17T06:59:59.047Z,19.53
2022-12-17T07:02:44.504Z,21.67
2022-12-17T07:05:32.214Z,13.52
2022-12-17T07:08:18.602Z,22.13
2022-12-17T07:11:05.216Z,21.65
2022-12-17T07:13:50.801Z,31.65
2022-12-17T07:16:47.826Z,19.00
2022-12-17T07:19:33.289Z,17.83
2022-12-17T07:22:18.729Z,27.45
2022-12-17T07:25:04.104Z,22.83
2022-12-17T07:27:50.946Z,25.30
2022-12-17T07:30:36.420Z,21.50
2022-12-17T07:33:25.965Z,15.57
2022-12-17T07:36:11.898Z,8.57
2022-12-17T07:38:57.748Z,15.55
2022-12-17T07:41:43.145Z,17.58
2022-12-17T07:44:29.856Z,24.80
2022-12-17T07:47:15.374Z,24.65
2022-12-17T07:50:00.899Z,24.10
2022-12-17T07:52:46.220Z,30.40
2022-12-17T07:55:31.740Z,20.13
2022-12-17T07:58:18.417Z,22.93
2022-12-17T08:01:05.666Z,17.48
2022-12-17T08:03:51.623Z,18.63
2022-12-17T08:06:36.793Z,16.27
2022-12-17T08:09:23.365Z,26.05
2022-12-17T08:12:08.069Z,27.50
2022-12-17T08:14:55.528Z,24.50
2022-12-17T08:17:42.597Z,29.30
2022-12-17T08:20:29.039Z,22.63
2022-12-17T08:23:20.067Z,21.88
2022-12-17T08:26:05.414Z,24.08
2022-12-17T08:28:51.411Z,26.02
2022-12-17T08:31:42.590Z,25.48
2022-12-17T08:34:40.907Z,21.65
2022-12-17T08:37:26.477Z,22.90
2022-12-17T08:40:12.107Z,18.77
2022-12-17T08:42:57.430Z,30.77
2022-12-17T08:45:43.061Z,29.45
2022-12-17T08:48:30.039Z,27.20
2022-12-17T08:51:17.229Z,17.02
2022-12-17T08:54:02.721Z,25.13
2022-12-17T08:56:49.215Z,20.13
2022-12-17T09:02:26.001Z,18.55
2022-12-17T09:05:11.549Z,22.00
2022-12-17T09:08:07.701Z,21.13
2022-12-17T09:10:53.446Z,19.60
2022-12-17T09:13:39.059Z,29.85
2022-12-17T09:16:25.571Z,23.58
2022-12-17T09:19:10.932Z,24.20
2022-12-17T09:21:56.466Z,32.55
2022-12-17T09:24:43.633Z,23.92
2022-12-17T09:27:29.241Z,17.92
2022-12-17T09:30:14.876Z,22.23
2022-12-17T09:33:00.905Z,16.92
2022-12-17T09:35:47.697Z,20.40
2022-12-17T09:38:33.219Z,23.15
2022-12-17T09:41:36.600Z,19.57
2022-12-17T09:44:27.162Z,19.83
2022-12-17T09:47:21.047Z,22.23
2022-12-17T09:50:06.511Z,18.90
2022-12-17T09:52:55.415Z,20.90
2022-12-17T09:55:44.764Z,23.75
2022-12-17T09:58:41.420Z,25.05
2022-12-17T10:01:40.630Z,21.90
2022-12-17T10:04:33.165Z,20.70
2022-12-17T10:07:21.803Z,23.13
2022-12-17T10:10:10.406Z,23.58
2022-12-17T10:12:55.856Z,20.60
2022-12-17T10:15:39.222Z,22.50
2022-12-17T10:18:27.349Z,17.98
2022-12-17T10:21:16.899Z,22.40
2022-12-17T10:24:04.012Z,22.25
2022-12-17T10:26:51.436Z,22.58
2022-12-17T10:29:43.891Z,20.38
2022-12-17T10:32:41.138Z,25.83
2022-12-17T10:35:32.347Z,21.90
2022-12-17T10:38:18.515Z,20.33
2022-12-17T10:41:03.717Z,21.88
2022-12-17T10:43:51.417Z,19.77
2022-12-17T10:46:45.013Z,25.40
2022-12-17T10:49:34.861Z,28.35
2022-12-17T10:52:25.137Z,26.80
2022-12-17T10:55:21.973Z,22.90
2022-12-17T10:58:10.781Z,15.88
2022-12-17T11:01:04.957Z,16.33
2022-12-17T11:03:57.381Z,21.13
2022-12-17T11:06:48.378Z,16.25
2022-12-17T11:09:47.087Z,29.73
2022-12-17T11:12:34.353Z,26.58
2022-12-17T11:15:26.184Z,26.40
2022-12-17T11:18:26.739Z,31.17
2022-12-17T11:21:17.450Z,26.52
2022-12-17T11:24:22.971Z,23.10
2022-12-17T11:27:12.181Z,21.58
2022-12-17T11:29:57.563Z,21.65
2022-12-17T11:33:22.212Z,24.63
2022-12-17T11:36:21.994Z,26.50
2022-12-17T11:39:24.998Z,22.73
2022-12-17T11:42:17.972Z,19.23
2022-12-17T11:45:11.557Z,22.80
2022-12-17T11:48:04.408Z,22.83
2022-12-17T11:50:59.498Z,17.02
2022-12-17T11:54:00.131Z,26.17
2022-12-17T11:56:50.965Z,17.50
2022-12-17T11:59:50.918Z,19.23
2022-12-17T12:02:57.700Z,19.50
2022-12-17T12:05:56.311Z,19.13
2022-12-17T12:08:45.759Z,23.75
2022-12-17T12:11:42.251Z,19.83
2022-12-17T12:14:38.490Z,14.38
2022-12-17T12:17:41.776Z,24.75
2022-12-17T12:20:40.769Z,16.77
2022-12-17T12:23:35.340Z,17.88
2022-12-17T12:26:30.172Z,21.58
2022-12-17T12:29:26.738Z,21.45
2022-12-17T12:32:23.044Z,24.90
2022-12-17T12:35:13.453Z,24.50
2022-12-17T12:38:04.472Z,19.95
2022-12-17T13:40:24.172Z,17.38
2022-12-17T13:42:52.473Z,25.33
2022-12-17T13:45:24.396Z,15.73
2022-12-17T13:47:56.928Z,24.80
2022-12-17T13:50:35.932Z,24.05
2022-12-17T13:53:11.637Z,28.30
2022-12-17T13:55:41.350Z,19.20
2022-12-17T13:58:23.376Z,15.75
2022-12-17T14:00:51.808Z,15.30
2022-12-17T14:03:42.956Z,22.15
2022-12-17T14:06:12.830Z,17.38
2022-12-17T14:08:41.508Z,29.35
2022-12-17T14:11:30.824Z,16.05
2022-12-17T14:13:59.522Z,20.88
2022-12-17T14:16:28.259Z,20.40
2022-12-17T14:18:58.153Z,15.98
2022-12-17T14:21:28.318Z,16.10
2022-12-17T14:23:57.313Z,23.08
2022-12-17T14:26:26.803Z,14.65
2022-12-17T14:28:56.485Z,16.98
2022-12-17T14:31:28.789Z,17.83
2022-12-17T14:34:08.151Z,17.40
2022-12-17T14:36:38.367Z,20.77
2022-12-17T14:39:17.172Z,19.92
2022-12-17T14:42:04.325Z,17.20
2022-12-17T14:44:33.067Z,21.65
2022-12-17T14:47:18.664Z,22.42
2022-12-17T14:49:59.363Z,26.67
2022-12-17T14:52:45.133Z,17.88
2022-12-17T14:55:35.176Z,22.25
2022-12-17T14:58:17.994Z,13.93
2022-12-17T15:00:48.488Z,20.70
2022-12-17T15:03:20.377Z,18.38
2022-12-17T15:05:52.669Z,14.15
2022-12-17T15:08:21.837Z,18.13
2022-12-17T15:10:49.858Z,17.73
2022-12-17T15:13:21.429Z,12.43
2022-12-17T15:15:49.519Z,14.88
2022-12-17T15:18:17.588Z,13.95
2022-12-17T15:20:46.037Z,14.85
2022-12-17T15:23:17.092Z,16.00
2022-12-17T15:25:47.188Z,18.85
2022-12-17T15:28:16.373Z,16.13
2022-12-17T15:30:46.053Z,12.02
2022-12-17T15:33:14.638Z,9.32
2022-12-17T15:35:43.706Z,12.25
2022-12-17T15:38:13.725Z,13.30
2022-12-17T15:40:42.134Z,12.77
2022-12-17T15:43:13.671Z,9.90
2022-12-17T15:45:43.454Z,8.48
2022-12-17T15:48:13.892Z,13.80
2022-12-17T15:50:42.079Z,12.98
2022-12-17T15:53:10.552Z,12.73
2022-12-17T15:55:39.290Z,12.50
2022-12-17T15:58:09.187Z,16.65
2022-12-17T16:00:37.747Z,13.77
2022-12-17T16:03:05.901Z,12.73
2022-12-17T16:05:37.606Z,14.43
2022-12-17T16:08:06.171Z,13.70
2022-12-17T16:10:34.270Z,15.88
2022-12-17T16:13:02.367Z,17.60
2022-12-17T16:15:30.603Z,13.38
2022-12-17T16:17:58.893Z,13.25
2022-12-17T16:20:26.997Z,10.90
2022-12-17T16:22:58.428Z,17.38
2022-12-17T16:25:26.461Z,11.38
2022-12-17T16:27:54.472Z,15.55
2022-12-17T16:30:24.483Z,11.23
2022-12-17T16:32:52.670Z,15.93
2022-12-17T16:35:20.707Z,16.30
2022-12-17T16:37:48.725Z,16.67
2022-12-17T16:40:18.787Z,15.80
2022-12-17T16:42:47.079Z,14.80
2022-12-17T16:45:15.127Z,10.35
2022-12-17T16:47:43.238Z,19.58
2022-12-17T16:50:11.317Z,15.55
2022-12-17T16:52:39.359Z,16.58
2022-12-17T16:55:07.915Z,13.10
2022-12-17T16:57:37.325Z,19.13
2022-12-17T17:00:06.572Z,12.70
2022-12-17T17:02:35.038Z,14.18
2022-12-17T17:05:03.335Z,17.27
2022-12-17T17:07:31.327Z,19.88
2022-12-17T17:09:59.442Z,18.05
2022-12-17T17:12:27.615Z,18.48
2022-12-17T17:14:57.143Z,22.35
2022-12-17T17:17:54.029Z,14.48
2022-12-17T17:20:14.284Z,15.02
2022-12-17T17:22:42.365Z,15.63
2022-12-17T17:25:10.728Z,19.83
2022-12-17T17:27:39.068Z,17.73
2022-12-17T17:30:10.091Z,15.43
2022-12-17T17:32:38.316Z,19.25
2022-12-17T17:35:07.282Z,15.60
2022-12-17T17:37:35.386Z,13.82
2022-12-17T17:40:03.325Z,25.08
2022-12-17T17:42:31.355Z,17.65
2022-12-17T17:44:59.484Z,12.70
2022-12-17T17:47:30.200Z,12.30
2022-12-17T17:50:00.279Z,21.38
2022-12-17T17:52:28.420Z,16.85
2022-12-17T17:54:56.596Z,14.35
2022-12-17T17:57:24.728Z,13.23
2022-12-17T17:59:52.770Z,16.33
2022-12-17T18:02:21.040Z,16.10
2022-12-17T18:04:50.793Z,14.65
2022-12-17T18:07:27.171Z,15.45
2022-12-17T18:09:56.119Z,15.18
2022-12-17T18:12:41.905Z,14.57
2022-12-17T18:15:17.857Z,11.80
2022-12-17T18:17:48.052Z,17.27
2022-12-17T18:20:18.006Z,13.48
2022-12-17T18:22:47.263Z,13.93
2022-12-17T18:25:16.087Z,14.30
2022-12-17T18:27:44.432Z,15.85
2022-12-17T18:30:13.175Z,10.60
2022-12-17T18:32:42.451Z,13.70
2022-12-17T18:35:11.003Z,13.32
2022-12-17T18:37:40.537Z,11.05
2022-12-17T18:40:09.650Z,14.40
2022-12-17T18:42:55.430Z,19.85
2022-12-17T18:45:23.871Z,14.20
2022-12-17T18:47:52.360Z,14.07
2022-12-17T18:50:20.620Z,15.90
2022-12-17T18:52:50.167Z,13.02
2022-12-17T18:55:18.316Z,11.90
2022-12-17T18:57:47.359Z,8.52
2022-12-17T19:00:16.099Z,12.60
2022-12-17T19:02:44.524Z,10.80
2022-12-17T19:05:12.810Z,12.20
2022-12-17T19:07:40.927Z,9.55
2022-12-17T19:10:11.447Z,10.85
2022-12-17T19:12:40.566Z,11.30
2022-12-17T19:15:09.862Z,12.52
2022-12-17T19:17:38.002Z,8.93
2022-12-17T19:20:07.450Z,13.40
2022-12-17T19:22:35.562Z,13.60
2022-12-17T19:25:03.786Z,12.70
2022-12-17T19:27:33.339Z,17.75
2022-12-17T19:30:01.776Z,10.18
2022-12-17T19:32:29.768Z,8.80
2022-12-17T19:34:58.129Z,15.13
2022-12-17T19:37:26.149Z,15.50
2022-12-17T19:39:54.188Z,15.68
2022-12-17T19:42:35.221Z,12.45
2022-12-17T19:45:07.913Z,11.75
2022-12-17T19:47:36.037Z,17.30
2022-12-17T19:50:04.453Z,12.43
2022-12-17T19:52:32.610Z,15.07
2022-12-17T19:55:00.917Z,15.00
2022-12-17T19:57:29.126Z,20.38
2022-12-17T19:59:57.207Z,9.95
2022-12-17T20:02:32.612Z,15.70
2022-12-17T20:05:01.775Z,18.17
2022-12-17T20:07:30.121Z,11.63
2022-12-17T20:09:58.097Z,16.25
2022-12-17T20:12:26.636Z,9.85
2022-12-17T20:14:54.838Z,11.00
2022-12-17T20:17:23.125Z,11.88
2022-12-17T20:19:53.883Z,11.93
2022-12-17T20:22:23.444Z,17.63
2022-12-17T20:24:53.952Z,14.90
2022-12-17T20:27:22.141Z,9.32
2022-12-17T20:29:50.422Z,14.85
2022-12-17T20:32:21.470Z,11.60
2022-12-17T20:34:49.723Z,16.20
2022-12-17T20:37:19.460Z,15.02
2022-12-17T20:39:47.754Z,18.20
2022-12-17T20:42:17.887Z,12.18
2022-12-17T20:44:51.555Z,18.08
2022-12-17T20:47:21.818Z,13.90
2022-12-17T20:49:50.035Z,18.60
2022-12-17T20:52:20.623Z,19.13
2022-12-17T20:54:49.466Z,19.52
2022-12-17T20:57:18.097Z,19.23
2022-12-17T20:59:46.274Z,18.20
2022-12-17T21:02:14.397Z,18.30
2022-12-17T21:04:42.606Z,20.02
2022-12-17T21:07:10.720Z,19.70
2022-12-17T21:09:40.440Z,16.10
2022-12-17T21:12:09.759Z,13.02
2022-12-17T21:14:38.965Z,17.55
2022-12-17T21:17:07.238Z,18.60
2022-12-17T21:19:35.562Z,18.75
2022-12-17T21:22:05.035Z,18.80
2022-12-17T21:24:33.261Z,20.80
2022-12-17T21:27:02.942Z,18.73
2022-12-17T21:29:31.133Z,18.67
2022-12-17T21:31:59.268Z,16.55
2022-12-17T21:34:29.295Z,15.88
2022-12-17T21:36:59.752Z,15.60
2022-12-17T21:39:27.897Z,12.73
2022-12-17T21:42:13.279Z,16.60
2022-12-17T21:44:42.959Z,16.55
2022-12-17T21:47:11.286Z,9.90
2022-12-17T21:49:39.414Z,13.10
2022-12-17T21:52:07.545Z,16.45
2022-12-17T21:54:37.871Z,20.38
2022-12-17T21:57:06.504Z,18.10
2022-12-17T21:59:34.780Z,13.55
2022-12-17T22:02:04.496Z,18.98
2022-12-17T22:04:34.953Z,8.20
2022-12-17T22:07:11.418Z,15.02
2022-12-17T22:10:33.342Z,15.85
2022-12-17T22:13:06.929Z,10.43
2022-12-17T22:15:37.638Z,13.57
2022-12-17T22:18:14.908Z,15.60
2022-12-17T22:20:43.147Z,13.60
2022-12-17T22:23:11.325Z,13.65
2022-12-17T22:25:40.841Z,14.00
2022-12-17T22:28:11.949Z,14.85
2022-12-17T22:30:57.945Z,17.50
2022-12-17T22:34:00.436Z,14.07
2022-12-17T22:37:37.669Z,16.77
2022-12-17T22:42:41.477Z,12.27
2022-12-17T22:44:37.551Z,16.13
2022-12-17T22:45:09.572Z,17.88
2022-12-17T22:47:38.900Z,10.93
2022-12-17T22:50:09.112Z,9.85
2022-12-17T22:52:37.888Z,10.07
2022-12-17T22:55:07.383Z,10.75
2022-12-17T22:57:38.275Z,14.27
2022-12-17T23:00:11.950Z,12.40
2022-12-17T23:02:40.769Z,16.20
2022-12-17T23:05:10.820Z,13.02
2022-12-17T23:07:40.103Z,16.05
2022-12-17T23:10:08.995Z,9.45
2022-12-17T23:12:52.414Z,16.58
2022-12-17T23:15:22.512Z,17.52
2022-12-17T23:17:50.931Z,17.65
2022-12-17T23:20:20.563Z,10.98
2022-12-17T23:22:48.995Z,17.52
2022-12-17T23:25:18.877Z,17.67
2022-12-17T23:27:47.653Z,18.52
2022-12-17T23:30:17.537Z,18.35
2022-12-17T23:32:46.007Z,17.48
2022-12-17T23:35:14.626Z,19.08
2022-12-17T23:37:44.023Z,19.42
2022-12-17T23:40:13.557Z,17.67
2022-12-17T23:42:41.550Z,17.75
2022-12-17T23:45:11.941Z,18.45
2022-12-17T23:47:42.140Z,19.00
2022-12-17T23:50:14.276Z,19.40
2022-12-17T23:52:43.735Z,19.08
2022-12-17T23:55:12.385Z,20.20
2022-12-17T23:57:40.504Z,18.25
